Dayton, Virginia
Current Conditions -  °F | °C
As of 4:15 PM on Wednesday 26 Nov 2014 (Local Time) from KVBW Reporting Station
Overcast Overcast  
Wind Chill: 32°   Ceiling: 300
Heat Index: 32°   Visibility: 2.5mi
Dew Point: 32°   Wind: 0mph
Humidity: 99%   Direction: NA
Pressure: 29.96"   Gusts: NA
Location:  38.41°N, 78.94°W
Report Text: KVBW 262115Z AUTO 00000KT 2 1/2SM OVC003 00/00 A2996 RMK AO2 T00020000
Loading
Personal Weather Stations






























Interactive Weather Map New forecast layout! Learn more

10-Day Weather Forecast

Advertisements
Track Severe Weather on mobile